createdAt,value
2017-08-15T00:02:22.188Z,17.80
2017-08-15T00:04:48.692Z,17.80
2017-08-15T00:07:15.082Z,17.80
2017-08-15T00:09:41.456Z,17.80
2017-08-15T00:12:07.880Z,17.80
2017-08-15T00:14:34.281Z,17.80
2017-08-15T00:17:00.681Z,17.80
2017-08-15T00:19:27.045Z,17.80
2017-08-15T00:21:53.400Z,17.80
2017-08-15T00:24:19.811Z,17.80
2017-08-15T00:26:46.324Z,17.70
2017-08-15T00:29:12.728Z,17.60
2017-08-15T00:31:39.127Z,17.60
2017-08-15T00:34:05.590Z,17.50
2017-08-15T00:36:31.965Z,17.60
2017-08-15T00:38:58.460Z,17.70
2017-08-15T00:41:24.860Z,17.70
2017-08-15T00:43:51.258Z,17.70
2017-08-15T00:46:17.632Z,17.70
2017-08-15T00:48:44.099Z,17.70
2017-08-15T00:51:10.480Z,17.70
2017-08-15T00:53:36.860Z,17.50
2017-08-15T00:56:03.295Z,17.50
2017-08-15T00:58:29.684Z,17.20
2017-08-15T01:00:56.117Z,17.20
2017-08-15T01:03:22.568Z,17.10
2017-08-15T01:05:49.016Z,17.00
2017-08-15T01:08:16.211Z,17.00
2017-08-15T01:10:42.579Z,17.00
2017-08-15T01:13:09.825Z,17.00
2017-08-15T01:15:36.196Z,17.00
2017-08-15T01:18:02.657Z,16.90
2017-08-15T01:20:29.079Z,16.90
2017-08-15T01:22:55.470Z,16.90
2017-08-15T01:25:21.852Z,17.00
2017-08-15T01:27:48.247Z,16.90
2017-08-15T01:30:14.660Z,16.80
2017-08-15T01:32:41.858Z,16.90
2017-08-15T01:35:08.256Z,16.80
2017-08-15T01:37:47.647Z,16.90
2017-08-15T01:40:14.057Z,16.90
2017-08-15T01:42:40.421Z,16.80
2017-08-15T01:45:06.842Z,16.70
2017-08-15T01:47:33.205Z,16.80
2017-08-15T01:50:00.352Z,16.70
2017-08-15T01:52:26.724Z,16.70
2017-08-15T01:54:53.096Z,16.70
2017-08-15T01:57:19.495Z,16.70
2017-08-15T01:59:45.851Z,16.80
2017-08-15T02:02:12.268Z,16.80
2017-08-15T02:04:38.655Z,16.80
2017-08-15T02:07:05.028Z,16.80
2017-08-15T02:09:31.467Z,16.80
2017-08-15T02:11:57.944Z,16.80
2017-08-15T02:14:24.310Z,16.80
2017-08-15T02:16:50.704Z,16.90
2017-08-15T02:19:17.056Z,16.80
2017-08-15T02:21:43.479Z,16.90
2017-08-15T02:24:09.980Z,16.90
2017-08-15T02:26:36.352Z,16.90
2017-08-15T02:29:03.476Z,17.00
2017-08-15T02:31:29.845Z,17.10
2017-08-15T02:33:56.236Z,17.00
2017-08-15T02:36:22.608Z,17.10
2017-08-15T02:38:48.957Z,17.10
2017-08-15T02:41:15.361Z,17.20
2017-08-15T02:43:41.753Z,17.10
2017-08-15T02:46:08.105Z,17.20
2017-08-15T02:48:34.511Z,17.20
2017-08-15T02:51:00.899Z,17.20
2017-08-15T02:53:27.257Z,17.20
2017-08-15T02:55:53.669Z,17.10
2017-08-15T02:58:20.169Z,17.20
2017-08-15T03:00:46.556Z,17.20
2017-08-15T03:03:12.932Z,17.10
2017-08-15T03:05:39.311Z,17.20
2017-08-15T03:08:05.706Z,17.30
2017-08-15T03:10:32.794Z,17.40
2017-08-15T03:12:59.181Z,17.30
2017-08-15T03:15:26.278Z,17.50
2017-08-15T03:17:52.676Z,17.50
2017-08-15T03:20:19.087Z,17.50
2017-08-15T03:22:45.480Z,17.50
2017-08-15T03:25:11.848Z,17.50
2017-08-15T03:27:38.297Z,17.50
2017-08-15T03:30:05.460Z,17.50
2017-08-15T03:32:31.836Z,17.50
2017-08-15T03:34:58.971Z,17.50
2017-08-15T03:37:25.331Z,17.40
2017-08-15T03:39:51.690Z,17.40
2017-08-15T03:42:18.085Z,17.40
2017-08-15T03:44:44.439Z,17.30
2017-08-15T03:47:11.544Z,17.30
2017-08-15T03:49:38.021Z,17.30
2017-08-15T03:52:05.120Z,17.30
2017-08-15T03:54:31.483Z,17.30
2017-08-15T03:56:57.870Z,17.30
2017-08-15T03:59:24.236Z,17.30
2017-08-15T04:01:50.635Z,17.30
2017-08-15T04:04:17.021Z,17.30
2017-08-15T04:06:43.387Z,17.30
2017-08-15T04:09:09.764Z,17.20
2017-08-15T04:11:36.112Z,17.20
2017-08-15T04:14:02.492Z,17.30
2017-08-15T04:16:28.848Z,17.30
2017-08-15T04:18:55.240Z,17.30
2017-08-15T04:21:21.609Z,17.40
2017-08-15T04:23:48.059Z,17.40
2017-08-15T04:26:14.430Z,17.40
2017-08-15T04:28:40.874Z,17.40
2017-08-15T04:31:07.332Z,17.40
2017-08-15T04:33:33.734Z,17.40
2017-08-15T04:36:00.142Z,17.50
2017-08-15T04:38:27.280Z,17.40
2017-08-15T04:40:53.633Z,17.50
2017-08-15T04:43:20.028Z,17.50
2017-08-15T04:45:46.455Z,17.60
2017-08-15T04:48:12.832Z,17.70
2017-08-15T04:50:39.247Z,17.70
2017-08-15T04:53:05.629Z,17.80
2017-08-15T04:55:32.056Z,17.90
2017-08-15T04:57:58.457Z,17.90
2017-08-15T05:00:25.557Z,18.00
2017-08-15T05:02:52.023Z,18.00
2017-08-15T05:05:19.166Z,18.20
2017-08-15T05:07:45.520Z,18.10
2017-08-15T05:10:11.920Z,18.20
2017-08-15T05:12:38.309Z,18.30
2017-08-15T05:15:04.682Z,18.40
2017-08-15T05:17:31.068Z,18.50
2017-08-15T05:19:57.439Z,18.60
2017-08-15T05:22:23.809Z,18.70
2017-08-15T05:24:50.992Z,19.00
2017-08-15T05:27:17.436Z,19.00
2017-08-15T05:29:43.804Z,19.20
2017-08-15T05:32:10.928Z,19.60
2017-08-15T05:34:37.280Z,19.70
2017-08-15T05:37:04.431Z,20.10
2017-08-15T05:39:31.528Z,20.30
2017-08-15T05:41:57.907Z,20.30
2017-08-15T05:44:25.096Z,20.50
2017-08-15T05:46:51.456Z,20.50
2017-08-15T05:49:17.803Z,20.70
2017-08-15T05:51:44.232Z,20.90
2017-08-15T05:54:10.616Z,20.90
2017-08-15T05:56:37.011Z,21.10
2017-08-15T05:59:03.392Z,21.30
2017-08-15T06:01:29.774Z,21.30
2017-08-15T06:03:56.183Z,21.50
2017-08-15T06:06:22.653Z,21.60
2017-08-15T06:08:49.839Z,22.00
2017-08-15T06:11:16.224Z,22.00
2017-08-15T06:13:42.588Z,22.30
2017-08-15T06:16:08.968Z,22.50
2017-08-15T06:18:35.388Z,22.60
2017-08-15T06:21:01.795Z,22.50
2017-08-15T06:23:28.151Z,22.50
2017-08-15T06:25:54.594Z,22.60
2017-08-15T06:28:20.972Z,22.70
2017-08-15T06:30:47.323Z,22.80
2017-08-15T06:33:13.708Z,22.80
2017-08-15T06:35:40.104Z,22.80
2017-08-15T06:38:06.567Z,23.00
2017-08-15T06:40:32.940Z,23.00
2017-08-15T06:42:59.304Z,23.30
2017-08-15T06:45:25.801Z,23.30
2017-08-15T06:47:52.170Z,23.40
2017-08-15T06:50:18.568Z,23.50
2017-08-15T06:52:44.953Z,23.60
2017-08-15T06:55:11.350Z,23.80
2017-08-15T06:57:37.712Z,24.00
2017-08-15T07:00:04.103Z,24.10
2017-08-15T07:02:30.480Z,24.40
2017-08-15T07:04:56.835Z,24.60
2017-08-15T07:07:23.295Z,25.00
2017-08-15T07:09:49.708Z,25.10
2017-08-15T07:12:16.075Z,25.40
2017-08-15T07:14:42.459Z,25.70
2017-08-15T07:17:09.562Z,26.10
2017-08-15T07:19:35.914Z,26.10
2017-08-15T07:22:02.340Z,26.20
2017-08-15T07:24:28.704Z,25.90
2017-08-15T07:26:55.794Z,26.20
2017-08-15T07:29:22.183Z,26.20
2017-08-15T07:31:49.376Z,26.90
2017-08-15T07:34:15.784Z,26.90
2017-08-15T07:36:42.176Z,26.90
2017-08-15T07:39:08.572Z,26.80
2017-08-15T07:41:34.933Z,26.70
2017-08-15T07:44:01.325Z,26.40
2017-08-15T07:46:27.735Z,26.60
2017-08-15T07:48:54.123Z,26.70
2017-08-15T07:51:20.503Z,26.60
2017-08-15T07:53:46.933Z,26.90
2017-08-15T07:56:13.400Z,27.00
2017-08-15T07:58:39.749Z,27.50
2017-08-15T08:01:06.130Z,28.00
2017-08-15T08:03:32.520Z,28.40
2017-08-15T08:05:58.940Z,28.70
2017-08-15T08:08:26.568Z,29.30
2017-08-15T08:10:53.163Z,29.30
2017-08-15T08:13:20.287Z,28.70
2017-08-15T08:15:46.692Z,28.70
2017-08-15T08:18:13.060Z,29.20
2017-08-15T08:20:39.422Z,29.70
2017-08-15T08:23:05.845Z,30.00
2017-08-15T08:25:32.979Z,30.90
2017-08-15T08:27:59.348Z,30.80
2017-08-15T08:30:25.720Z,30.40
2017-08-15T08:32:52.108Z,30.50
2017-08-15T08:35:18.521Z,30.80
2017-08-15T08:37:44.939Z,31.30
2017-08-15T08:40:11.305Z,31.60
2017-08-15T08:42:37.664Z,32.00
2017-08-15T08:45:04.081Z,32.20
2017-08-15T08:47:30.463Z,32.50
2017-08-15T08:49:56.856Z,32.40
2017-08-15T08:52:23.220Z,32.60
2017-08-15T08:54:49.612Z,32.90
2017-08-15T08:57:16.059Z,32.40
2017-08-15T08:59:42.428Z,32.00
2017-08-15T09:02:09.603Z,31.50
2017-08-15T09:04:35.997Z,31.50
2017-08-15T09:07:02.496Z,31.90
2017-08-15T09:09:28.919Z,32.10
2017-08-15T09:11:55.356Z,32.00
2017-08-15T09:14:21.747Z,32.90
2017-08-15T09:16:48.132Z,32.20
2017-08-15T09:19:14.563Z,32.20
2017-08-15T09:21:41.055Z,33.20
2017-08-15T09:24:08.205Z,33.80
2017-08-15T09:26:34.627Z,33.70
2017-08-15T09:29:01.824Z,34.70
2017-08-15T09:31:28.260Z,34.60
2017-08-15T09:33:54.688Z,34.50
2017-08-15T09:36:21.065Z,34.60
2017-08-15T09:38:47.469Z,34.70
2017-08-15T09:41:13.881Z,34.90
2017-08-15T09:43:40.287Z,35.10
2017-08-15T09:46:06.681Z,35.10
2017-08-15T09:48:33.061Z,35.20
2017-08-15T09:50:59.468Z,34.80
2017-08-15T09:53:26.569Z,35.00
2017-08-15T09:55:52.967Z,34.90
2017-08-15T09:58:35.236Z,35.40
2017-08-15T10:01:01.656Z,35.20
2017-08-15T10:03:28.797Z,35.50
2017-08-15T10:05:55.227Z,35.50
2017-08-15T10:08:21.575Z,35.60
2017-08-15T10:10:47.956Z,35.90
2017-08-15T10:13:14.381Z,36.20
2017-08-15T10:15:40.900Z,36.10
2017-08-15T10:18:08.047Z,34.90
2017-08-15T10:20:35.153Z,35.40
2017-08-15T10:23:01.587Z,35.40
2017-08-15T10:25:28.900Z,35.90
2017-08-15T10:27:55.307Z,36.30
2017-08-15T10:30:23.399Z,36.00
2017-08-15T10:32:49.752Z,36.00
2017-08-15T10:35:16.140Z,35.50
2017-08-15T10:37:43.256Z,36.60
2017-08-15T10:40:09.639Z,36.50
2017-08-15T10:42:36.045Z,37.00
2017-08-15T10:45:02.429Z,37.40
2017-08-15T10:50:26.192Z,38.20
2017-08-15T10:52:52.555Z,38.20
2017-08-15T10:55:18.946Z,38.30
2017-08-15T10:57:45.393Z,37.90
2017-08-15T11:00:12.531Z,38.10
2017-08-15T11:02:38.912Z,38.10
2017-08-15T11:05:05.305Z,38.40
2017-08-15T11:07:32.439Z,37.60
2017-08-15T11:09:58.807Z,37.50
2017-08-15T11:12:25.200Z,37.10
2017-08-15T11:14:51.570Z,36.50
2017-08-15T11:17:17.964Z,35.90
2017-08-15T11:19:44.348Z,36.20
2017-08-15T11:22:10.719Z,35.40
2017-08-15T11:24:37.227Z,35.20
2017-08-15T11:27:03.596Z,34.20
2017-08-15T11:29:29.959Z,34.20
2017-08-15T11:31:56.376Z,34.60
2017-08-15T11:34:22.749Z,34.80
2017-08-15T11:36:49.132Z,34.60
2017-08-15T11:39:16.257Z,34.00
2017-08-15T11:41:42.633Z,34.00
2017-08-15T11:44:09.028Z,33.80
2017-08-15T11:46:35.384Z,34.00
2017-08-15T11:49:02.526Z,34.10
2017-08-15T11:51:28.872Z,34.00
2017-08-15T11:53:55.236Z,33.90
2017-08-15T11:56:21.665Z,33.80
2017-08-15T11:58:48.065Z,33.70
2017-08-15T12:01:15.280Z,33.60
2017-08-15T12:03:41.688Z,33.60
2017-08-15T12:06:08.148Z,33.50
2017-08-15T12:08:34.552Z,33.30
2017-08-15T12:11:00.952Z,33.30
2017-08-15T12:13:27.335Z,33.10
2017-08-15T12:15:53.688Z,33.30
2017-08-15T12:18:20.940Z,33.10
2017-08-15T12:20:47.318Z,33.10
2017-08-15T12:23:13.698Z,32.60
2017-08-15T12:25:40.878Z,33.00
2017-08-15T12:28:07.308Z,32.90
2017-08-15T12:30:33.663Z,33.10
2017-08-15T12:33:00.035Z,33.20
2017-08-15T12:35:26.405Z,33.30
2017-08-15T12:37:52.786Z,33.10
2017-08-15T12:40:19.192Z,33.10
2017-08-15T12:42:45.543Z,33.10
2017-08-15T12:45:11.950Z,33.20
2017-08-15T12:47:38.332Z,32.50
2017-08-15T12:50:04.686Z,32.80
2017-08-15T12:52:31.084Z,32.70
2017-08-15T12:54:57.432Z,32.80
2017-08-15T12:57:23.801Z,32.90
2017-08-15T12:59:50.190Z,32.60
2017-08-15T13:02:16.548Z,32.40
2017-08-15T13:04:42.993Z,32.40
2017-08-15T13:07:09.393Z,32.10
2017-08-15T13:09:36.491Z,31.90
2017-08-15T13:12:02.903Z,31.90
2017-08-15T13:14:29.263Z,31.90
2017-08-15T13:16:55.668Z,31.80
2017-08-15T13:19:22.085Z,31.80
2017-08-15T13:21:48.438Z,31.70
2017-08-15T13:24:14.841Z,31.70
2017-08-15T13:26:41.317Z,31.60
2017-08-15T13:29:07.732Z,31.40
2017-08-15T13:31:34.124Z,31.20
2017-08-15T13:34:01.261Z,31.20
2017-08-15T13:36:28.435Z,31.20
2017-08-15T13:38:54.844Z,31.10
2017-08-15T13:41:22.045Z,30.80
2017-08-15T13:43:48.448Z,30.90
2017-08-15T13:46:14.836Z,30.90
2017-08-15T13:48:41.372Z,30.70
2017-08-15T13:51:07.816Z,30.70
2017-08-15T13:53:34.964Z,30.60
2017-08-15T13:56:01.355Z,30.60
2017-08-15T13:58:27.752Z,30.60
2017-08-15T14:00:54.913Z,30.50
2017-08-15T14:03:21.334Z,30.40
2017-08-15T14:05:47.817Z,30.50
2017-08-15T14:08:14.256Z,30.60
2017-08-15T14:10:40.680Z,30.50
2017-08-15T14:13:07.071Z,30.20
2017-08-15T14:15:33.496Z,30.10
2017-08-15T14:17:59.913Z,30.20
2017-08-15T14:20:26.341Z,30.10
2017-08-15T14:22:53.507Z,29.70
2017-08-15T14:25:20.663Z,29.60
2017-08-15T14:27:47.041Z,29.50
2017-08-15T14:30:13.444Z,29.60
2017-08-15T14:32:39.860Z,29.70
2017-08-15T14:35:06.378Z,29.70
2017-08-15T14:37:32.860Z,29.70
2017-08-15T14:39:59.327Z,29.60
2017-08-15T14:42:25.746Z,29.50
2017-08-15T14:44:52.138Z,29.60
2017-08-15T14:47:18.605Z,29.40
2017-08-15T14:49:45.000Z,29.50
2017-08-15T14:52:11.404Z,29.30
2017-08-15T14:54:38.572Z,29.40
2017-08-15T14:57:04.955Z,29.40
2017-08-15T14:59:31.332Z,29.30
2017-08-15T15:01:57.743Z,29.30
2017-08-15T15:04:24.145Z,29.40
2017-08-15T15:06:50.548Z,29.30
2017-08-15T15:09:17.012Z,29.30
2017-08-15T15:11:43.381Z,29.30
2017-08-15T15:14:10.529Z,29.20
2017-08-15T15:16:37.664Z,29.10
2017-08-15T15:19:04.808Z,29.00
2017-08-15T15:21:31.270Z,29.00
2017-08-15T15:23:58.395Z,29.20
2017-08-15T15:26:24.775Z,29.20
2017-08-15T15:28:51.213Z,29.30
2017-08-15T15:31:17.632Z,29.20
2017-08-15T15:33:43.993Z,29.00
2017-08-15T15:36:10.401Z,28.90
2017-08-15T15:38:36.864Z,29.00
2017-08-15T15:41:03.260Z,29.00
2017-08-15T15:43:29.693Z,29.10
2017-08-15T15:45:56.052Z,29.10
2017-08-15T15:48:22.492Z,29.20
2017-08-15T15:50:48.915Z,29.20
2017-08-15T15:53:15.272Z,29.30
2017-08-15T15:55:41.631Z,29.30
2017-08-15T15:58:08.017Z,29.10
2017-08-15T16:00:34.943Z,29.10
2017-08-15T16:03:01.319Z,29.00
2017-08-15T16:05:27.720Z,28.70
2017-08-15T16:07:54.064Z,28.40
2017-08-15T16:10:20.455Z,28.20
2017-08-15T16:12:46.815Z,28.00
2017-08-15T16:15:13.168Z,27.90
2017-08-15T16:17:39.652Z,27.90
2017-08-15T16:20:06.009Z,27.90
2017-08-15T16:22:32.405Z,27.70
2017-08-15T16:24:59.060Z,27.50
2017-08-15T16:27:25.440Z,27.50
2017-08-15T16:29:51.888Z,27.30
2017-08-15T16:32:18.249Z,27.10
2017-08-15T16:34:44.649Z,26.60
2017-08-15T16:37:11.040Z,26.00
2017-08-15T16:39:37.440Z,25.70
2017-08-15T16:42:03.855Z,25.50
2017-08-15T16:44:30.281Z,25.30
2017-08-15T16:46:56.696Z,25.10
2017-08-15T16:49:23.144Z,25.30
2017-08-15T16:51:49.608Z,25.10
2017-08-15T16:54:15.995Z,25.30
2017-08-15T16:56:43.116Z,25.40
2017-08-15T16:59:09.469Z,25.30
2017-08-15T17:01:36.607Z,25.50
2017-08-15T17:04:03.008Z,25.50
2017-08-15T17:06:29.392Z,25.60
2017-08-15T17:08:56.532Z,25.60
2017-08-15T17:11:23.635Z,25.50
2017-08-15T17:13:50.007Z,25.50
2017-08-15T17:16:17.212Z,25.50
2017-08-15T17:18:43.568Z,25.50
2017-08-15T17:21:09.996Z,25.40
2017-08-15T17:23:36.381Z,25.10
2017-08-15T17:26:02.737Z,25.00
2017-08-15T17:28:29.130Z,25.20
2017-08-15T17:30:55.537Z,25.20
2017-08-15T17:33:21.968Z,25.00
2017-08-15T17:35:48.345Z,25.10
2017-08-15T17:38:14.720Z,25.00
2017-08-15T17:40:41.149Z,25.00
2017-08-15T17:43:08.271Z,25.00
2017-08-15T17:45:34.735Z,25.00
2017-08-15T17:48:01.332Z,24.90
2017-08-15T17:50:27.744Z,24.80
2017-08-15T17:52:54.108Z,24.90
2017-08-15T17:55:20.508Z,24.90
2017-08-15T17:57:46.880Z,24.90
2017-08-15T18:00:13.244Z,24.90
2017-08-15T18:02:40.373Z,24.80
2017-08-15T18:05:06.754Z,24.80
2017-08-15T18:07:33.133Z,24.90
2017-08-15T18:09:59.485Z,24.90
2017-08-15T18:12:25.903Z,24.90
2017-08-15T18:14:53.048Z,24.80
2017-08-15T18:17:19.473Z,24.80
2017-08-15T18:19:45.849Z,24.70
2017-08-15T18:22:12.204Z,24.70
2017-08-15T18:24:38.642Z,24.60
2017-08-15T18:27:05.122Z,24.60
2017-08-15T18:29:32.266Z,24.40
2017-08-15T18:31:59.485Z,24.10
2017-08-15T18:34:25.840Z,24.10
2017-08-15T18:36:52.236Z,23.90
2017-08-15T18:39:18.596Z,23.70
2017-08-15T18:41:45.010Z,23.80
2017-08-15T18:44:11.405Z,23.80
2017-08-15T18:46:37.825Z,23.30
2017-08-15T18:49:04.260Z,23.30
2017-08-15T18:51:31.422Z,23.10
2017-08-15T18:53:57.808Z,23.10
2017-08-15T18:56:24.278Z,22.90
2017-08-15T18:58:50.639Z,22.60
2017-08-15T19:01:17.040Z,22.10
2017-08-15T19:03:43.399Z,21.80
2017-08-15T19:06:09.788Z,21.90
2017-08-15T19:08:36.912Z,21.60
2017-08-15T19:11:03.373Z,21.60
2017-08-15T19:13:30.496Z,21.90
2017-08-15T19:15:56.863Z,21.90
2017-08-15T19:18:23.301Z,21.50
2017-08-15T19:20:49.685Z,21.50
2017-08-15T19:23:16.876Z,21.40
2017-08-15T19:25:44.045Z,21.30
2017-08-15T19:28:10.412Z,21.20
2017-08-15T19:30:36.819Z,21.40
2017-08-15T19:33:03.221Z,21.60
2017-08-15T19:35:29.578Z,21.80
2017-08-15T19:37:55.958Z,21.80
2017-08-15T19:40:22.352Z,21.90
2017-08-15T19:42:48.740Z,21.80
2017-08-15T19:45:15.133Z,21.60
2017-08-15T19:47:41.562Z,21.70
2017-08-15T19:50:07.946Z,21.40
2017-08-15T19:52:34.298Z,21.30
2017-08-15T19:55:01.008Z,20.80
2017-08-15T19:57:27.428Z,20.70
2017-08-15T19:59:53.849Z,20.50
2017-08-15T20:02:20.256Z,20.30
2017-08-15T20:04:47.413Z,20.10
2017-08-15T20:07:13.803Z,20.00
2017-08-15T20:09:40.175Z,19.90
2017-08-15T20:12:06.548Z,19.60
2017-08-15T20:14:32.945Z,19.50
2017-08-15T20:16:59.321Z,19.30
2017-08-15T20:19:25.736Z,19.10
2017-08-15T20:21:52.132Z,19.00
2017-08-15T20:24:18.485Z,18.90
2017-08-15T20:26:44.909Z,18.80
2017-08-15T20:29:11.316Z,18.90
2017-08-15T20:31:37.681Z,18.90
2017-08-15T20:34:04.060Z,19.00
2017-08-15T20:36:30.436Z,18.80
2017-08-15T20:38:57.821Z,18.70
2017-08-15T20:41:24.195Z,18.60
2017-08-15T20:43:50.557Z,18.60
2017-08-15T20:46:16.953Z,18.60
2017-08-15T20:48:43.324Z,18.70
2017-08-15T20:51:09.748Z,19.00
2017-08-15T20:53:36.896Z,18.90
2017-08-15T20:56:03.260Z,18.80
2017-08-15T20:58:29.641Z,18.80
2017-08-15T21:00:56.048Z,18.90
2017-08-15T21:03:22.419Z,18.70
2017-08-15T21:05:49.561Z,18.90
2017-08-15T21:08:16.731Z,19.00
2017-08-15T21:10:43.821Z,19.10
2017-08-15T21:13:10.221Z,19.10
2017-08-15T21:15:36.612Z,19.30
2017-08-15T21:18:03.012Z,19.40
2017-08-15T21:20:29.387Z,19.60
2017-08-15T21:22:55.783Z,19.70
2017-08-15T21:25:22.152Z,19.80
2017-08-15T21:27:48.619Z,19.90
2017-08-15T21:30:14.998Z,20.00
2017-08-15T21:32:41.385Z,20.00
2017-08-15T21:35:07.780Z,20.10
2017-08-15T21:37:34.182Z,20.10
2017-08-15T21:40:00.561Z,20.10
2017-08-15T21:42:27.681Z,20.10
2017-08-15T21:44:54.816Z,20.10
2017-08-15T21:47:21.250Z,20.10
2017-08-15T21:49:47.631Z,20.00
2017-08-15T21:52:14.027Z,19.90
2017-08-15T21:54:40.389Z,19.90
2017-08-15T21:57:06.770Z,19.90
2017-08-15T21:59:33.132Z,20.00
2017-08-15T22:02:05.599Z,20.30
2017-08-15T22:04:31.974Z,19.90
2017-08-15T22:06:58.356Z,20.00
2017-08-15T22:09:25.508Z,20.00
2017-08-15T22:11:51.865Z,20.00
2017-08-15T22:14:18.252Z,20.10
2017-08-15T22:16:44.640Z,20.10
2017-08-15T22:19:11.040Z,20.10
2017-08-15T22:21:37.443Z,20.00
2017-08-15T22:24:03.832Z,20.00
2017-08-15T22:26:30.193Z,20.00
2017-08-15T22:28:56.641Z,20.00
2017-08-15T22:31:22.995Z,20.00
2017-08-15T22:33:49.341Z,20.10
2017-08-15T22:36:16.473Z,20.00
2017-08-15T22:38:42.941Z,20.00
2017-08-15T22:41:09.360Z,20.00
2017-08-15T22:43:35.756Z,20.00
2017-08-15T22:46:02.147Z,19.90
2017-08-15T22:48:28.531Z,19.90
2017-08-15T22:50:54.925Z,19.90
2017-08-15T22:53:21.341Z,19.80
2017-08-15T22:55:47.704Z,19.70
2017-08-15T22:58:14.064Z,19.60
2017-08-15T23:00:41.188Z,19.30
2017-08-15T23:03:07.564Z,19.30
2017-08-15T23:05:33.928Z,19.20
2017-08-15T23:08:00.344Z,19.20
2017-08-15T23:10:26.704Z,19.20
2017-08-15T23:12:53.081Z,19.30
2017-08-15T23:15:19.508Z,19.30
2017-08-15T23:17:45.906Z,19.30
2017-08-15T23:20:12.276Z,19.30
2017-08-15T23:22:38.677Z,19.30
2017-08-15T23:25:05.048Z,19.30
2017-08-15T23:27:31.417Z,19.30
2017-08-15T23:29:57.815Z,19.30
2017-08-15T23:32:24.200Z,19.30
2017-08-15T23:34:50.587Z,19.10
2017-08-15T23:37:16.976Z,19.20
2017-08-15T23:39:43.456Z,19.10
2017-08-15T23:42:09.836Z,19.20
2017-08-15T23:44:36.208Z,19.10
2017-08-15T23:47:02.676Z,19.00
2017-08-15T23:49:29.068Z,19.00
2017-08-15T23:51:55.437Z,19.00
2017-08-15T23:54:21.892Z,18.90
2017-08-15T23:56:48.260Z,19.00
2017-08-15T23:59:14.664Z,19.00
